Time;durP1;ratioP1;P1;durP2;ratioP2;P2;SDS_P1;SDS_P2;PMS_P1;PMS_P2;Temp;Humidity;BMP_temperature;BMP_pressure;BME280_temperature;BME280_humidity;BME280_pressure;Samples;Min_cycle;Max_cycle;Signal;HPM_P1;HPM_P2
2022/11/18 00:00:32;;;;;;;2.67;2.50;;;13.00;99.90;;;;;;4249903;28;20050;-93
2022/11/18 00:02:52;;;;;;;3.20;2.90;;;13.00;99.90;;;;;;4246953;28;20086;-92
2022/11/18 00:05:12;;;;;;;6.05;2.35;;;13.00;99.90;;;;;;4245921;28;20377;-93
2022/11/18 00:07:32;;;;;;;2.55;2.35;;;13.10;99.90;;;;;;4231688;28;20043;-92
2022/11/18 00:09:52;;;;;;;2.38;2.15;;;13.20;99.90;;;;;;4244946;28;20251;-92
2022/11/18 00:14:50;;;;;;;3.70;3.42;;;13.10;99.90;;;;;;4250915;28;20231;-91
2022/11/18 00:17:10;;;;;;;2.60;2.20;;;13.10;99.90;;;;;;4245979;28;20034;-92
2022/11/18 00:19:38;;;;;;;6.95;2.72;;;13.00;99.90;;;;;;4248910;28;20134;-92
2022/11/18 00:21:58;;;;;;;6.03;2.45;;;13.00;99.90;;;;;;4248222;28;20365;-92
2022/11/18 00:24:19;;;;;;;2.45;2.35;;;13.10;99.90;;;;;;4247193;28;20054;-91
2022/11/18 00:26:39;;;;;;;2.75;2.33;;;13.00;99.90;;;;;;4251164;27;20065;-92
2022/11/18 00:28:59;;;;;;;3.90;2.67;;;13.00;99.90;;;;;;4243284;28;20039;-91
2022/11/18 00:31:19;;;;;;;3.33;2.47;;;13.00;99.90;;;;;;4246652;28;20047;-92
2022/11/18 00:33:40;;;;;;;3.08;2.88;;;13.00;99.90;;;;;;4240001;28;20043;-92
2022/11/18 00:35:59;;;;;;;3.67;3.35;;;13.00;99.90;;;;;;4248077;28;20395;-92
2022/11/18 00:38:19;;;;;;;2.58;2.38;;;12.90;99.90;;;;;;4243416;28;20038;-92
2022/11/18 00:40:39;;;;;;;3.63;2.78;;;12.80;99.90;;;;;;4247079;28;20107;-92
2022/11/18 00:42:59;;;;;;;3.65;2.55;;;12.80;99.90;;;;;;4243393;28;20038;-93
2022/11/18 00:45:20;;;;;;;4.80;2.90;;;12.80;99.90;;;;;;4247800;28;20076;-93
2022/11/18 00:47:40;;;;;;;4.07;3.55;;;12.80;99.90;;;;;;4238067;28;20073;-93
2022/11/18 00:50:00;;;;;;;3.38;3.15;;;12.80;99.90;;;;;;4243570;28;20054;-93
2022/11/18 00:52:20;;;;;;;3.33;3.20;;;12.80;99.90;;;;;;4244826;28;20034;-91
2022/11/18 00:54:40;;;;;;;3.90;3.30;;;12.80;99.90;;;;;;4230619;28;20133;-92
2022/11/18 00:57:00;;;;;;;3.05;2.92;;;12.70;99.90;;;;;;4245572;28;20050;-92
2022/11/18 00:59:20;;;;;;;3.88;3.78;;;12.60;99.90;;;;;;4242731;28;20273;-92
2022/11/18 01:01:40;;;;;;;3.28;2.90;;;12.60;99.90;;;;;;4236119;28;20235;-91
2022/11/18 01:04:00;;;;;;;4.45;3.67;;;12.70;99.90;;;;;;4247551;28;20107;-92
2022/11/18 01:06:21;;;;;;;7.07;2.72;;;13.00;99.90;;;;;;4240337;28;20239;-90
2022/11/18 01:08:40;;;;;;;3.15;3.05;;;13.10;99.90;;;;;;4232317;28;20039;-92
2022/11/18 01:13:39;;;;;;;3.45;3.33;;;13.10;99.90;;;;;;4247968;28;20042;-92
2022/11/18 01:15:59;;;;;;;3.80;3.38;;;13.00;99.90;;;;;;4239138;28;20051;-92
2022/11/18 01:18:21;;;;;;;5.43;2.47;;;13.00;99.90;;;;;;4247994;28;20038;-91
2022/11/18 01:20:42;;;;;;;3.28;3.05;;;13.00;99.90;;;;;;4234350;28;20104;-92
2022/11/18 01:23:02;;;;;;;2.50;2.30;;;13.00;99.90;;;;;;4239778;28;20043;-92
2022/11/18 01:25:23;;;;;;;4.13;2.95;;;13.10;99.90;;;;;;4245395;28;20050;-92
2022/11/18 01:27:43;;;;;;;2.88;2.67;;;13.10;99.90;;;;;;4247636;28;20046;-92
2022/11/18 01:30:03;;;;;;;3.55;3.33;;;13.10;99.90;;;;;;4246572;28;20058;-92
2022/11/18 01:32:23;;;;;;;2.58;2.47;;;13.10;99.90;;;;;;4244562;28;20150;-91
2022/11/18 01:34:44;;;;;;;10.90;3.08;;;13.10;99.90;;;;;;4239548;28;20042;-93
2022/11/18 01:37:04;;;;;;;3.08;2.60;;;13.20;99.90;;;;;;4245378;28;20407;-89
2022/11/18 01:39:24;;;;;;;3.08;2.88;;;13.20;99.90;;;;;;4245103;28;20054;-92
2022/11/18 01:41:45;;;;;;;5.43;2.78;;;13.20;99.90;;;;;;4237164;28;20051;-92
2022/11/18 01:44:25;;;;;;;5.75;2.88;;;13.20;99.90;;;;;;4241691;28;20076;-92
2022/11/18 01:46:45;;;;;;;2.97;2.58;;;13.30;99.90;;;;;;4246149;28;20039;-92
2022/11/18 01:49:09;;;;;;;3.30;2.80;;;13.30;99.90;;;;;;4242365;28;20354;-92
2022/11/18 01:51:33;;;;;;;5.35;2.75;;;13.30;99.90;;;;;;4243415;28;20049;-92
2022/11/18 01:54:01;;;;;;;5.78;3.47;;;13.30;99.90;;;;;;4253228;28;20077;-92
2022/11/18 01:56:25;;;;;;;3.17;2.55;;;13.30;99.90;;;;;;4243878;28;20261;-90
2022/11/18 01:58:53;;;;;;;5.70;2.70;;;13.30;99.90;;;;;;4233240;28;20043;-93
2022/11/18 02:01:13;;;;;;;3.55;3.35;;;13.20;99.90;;;;;;4247153;28;20226;-91
2022/11/18 02:03:34;;;;;;;4.18;3.10;;;12.80;99.90;;;;;;4232762;28;20231;-92
2022/11/18 02:05:57;;;;;;;5.28;3.70;;;12.50;99.90;;;;;;4245906;28;20062;-93
2022/11/18 02:08:18;;;;;;;7.82;3.70;;;12.50;99.90;;;;;;4242737;28;20298;-92
2022/11/18 02:10:38;;;;;;;3.17;2.53;;;12.80;99.90;;;;;;4244364;28;20050;-93
2022/11/18 02:12:58;;;;;;;4.05;3.17;;;13.00;99.90;;;;;;4247296;28;20034;-91
2022/11/18 02:15:38;;;;;;;3.30;3.03;;;13.10;99.90;;;;;;4250467;28;20045;-92
2022/11/18 02:18:24;;;;;;;3.92;3.60;;;13.10;99.90;;;;;;4248704;28;20415;-93
2022/11/18 02:20:46;;;;;;;3.03;2.85;;;13.10;99.90;;;;;;4246989;28;20327;-92
2022/11/18 02:23:25;;;;;;;4.78;2.78;;;13.00;99.90;;;;;;4241864;28;20051;-91
2022/11/18 02:25:57;;;;;;;5.40;4.28;;;13.10;99.90;;;;;;4233455;28;20108;-93
2022/11/18 02:28:32;;;;;;;5.35;2.50;;;13.10;99.90;;;;;;4236081;28;20077;-92
2022/11/18 02:31:01;;;;;;;3.92;3.45;;;13.20;99.90;;;;;;4247973;28;20046;-90
2022/11/18 02:33:48;;;;;;;8.60;3.28;;;13.10;99.90;;;;;;4238469;28;20306;-90
2022/11/18 02:36:23;;;;;;;5.38;2.88;;;13.10;99.90;;;;;;4245943;28;20294;-89
2022/11/18 02:39:15;;;;;;;6.22;3.10;;;13.10;99.90;;;;;;4248497;28;20396;-91
2022/11/18 02:41:38;;;;;;;3.28;2.97;;;13.10;99.90;;;;;;4233266;28;20039;-91
2022/11/18 02:44:08;;;;;;;3.50;3.30;;;13.00;99.90;;;;;;4246235;28;20105;-92
2022/11/18 02:46:37;;;;;;;3.08;2.70;;;12.90;99.90;;;;;;4244956;28;20073;-92
2022/11/18 02:48:59;;;;;;;5.13;3.40;;;12.80;99.90;;;;;;4244710;28;20035;-91
2022/11/18 02:51:24;;;;;;;5.57;2.90;;;12.80;99.90;;;;;;4241443;28;20103;-93
2022/11/18 02:53:46;;;;;;;3.85;3.47;;;12.70;99.90;;;;;;4250360;28;20039;-91
2022/11/18 02:56:08;;;;;;;4.40;3.10;;;12.70;99.90;;;;;;4231168;28;20166;-90
2022/11/18 02:58:28;;;;;;;6.53;3.37;;;12.60;99.90;;;;;;4250456;28;20089;-93
2022/11/18 03:00:56;;;;;;;5.22;4.35;;;12.70;99.90;;;;;;4244409;28;20404;-93
2022/11/18 03:03:32;;;;;;;3.15;2.95;;;12.70;99.90;;;;;;4245630;28;20035;-93
2022/11/18 03:06:03;;;;;;;4.07;3.67;;;12.70;99.90;;;;;;4246748;28;20104;-92
2022/11/18 03:08:28;;;;;;;5.45;2.40;;;12.70;99.90;;;;;;4245675;28;20105;-92
2022/11/18 03:11:22;;;;;;;3.08;2.75;;;12.70;99.90;;;;;;4235215;28;20061;-92
2022/11/18 03:14:09;;;;;;;8.43;3.78;;;12.70;99.90;;;;;;4173399;28;20423;-92
2022/11/18 03:16:37;;;;;;;6.82;3.22;;;12.70;99.90;;;;;;4172236;28;20113;-92
2022/11/18 03:19:19;;;;;;;2.47;2.33;;;12.70;99.90;;;;;;4176343;28;20041;-92
2022/11/18 03:21:51;;;;;;;1.77;1.77;;;12.70;99.90;;;;;;4161566;28;20085;-92
2022/11/18 03:24:29;;;;;;;1.95;1.80;;;12.70;99.90;;;;;;4172521;28;20108;-92
2022/11/18 03:26:54;;;;;;;4.68;3.63;;;12.60;99.90;;;;;;4175544;28;20237;-91
2022/11/18 03:29:20;;;;;;;3.95;3.75;;;12.40;99.90;;;;;;4163170;28;20064;-91
2022/11/18 03:31:47;;;;;;;5.68;3.90;;;12.20;99.90;;;;;;4176728;28;20272;-90
2022/11/18 03:34:21;;;;;;;9.43;4.00;;;12.00;99.90;;;;;;4170930;28;20292;-92
2022/11/18 03:36:46;;;;;;;4.45;4.05;;;11.90;99.90;;;;;;4167968;28;20052;-92
2022/11/18 03:39:14;;;;;;;4.47;3.65;;;11.70;99.90;;;;;;4165955;28;20088;-92
2022/11/18 03:41:39;;;;;;;2.85;2.85;;;11.60;99.90;;;;;;4176250;28;20083;-92
2022/11/18 03:44:07;;;;;;;3.85;3.65;;;11.70;99.90;;;;;;4168379;28;20052;-92
2022/11/18 03:46:48;;;;;;;2.58;2.53;;;11.70;99.90;;;;;;4175405;28;20186;-92
2022/11/18 03:49:16;;;;;;;2.20;2.17;;;11.70;99.90;;;;;;4208247;28;20039;-91
2022/11/18 03:51:43;;;;;;;4.10;2.30;;;11.80;99.90;;;;;;4232495;28;20092;-92
2022/11/18 03:54:26;;;;;;;3.45;3.35;;;11.80;99.90;;;;;;4235355;28;20038;-92
2022/11/18 03:56:55;;;;;;;2.00;1.90;;;11.80;99.90;;;;;;4239351;28;20046;-92
2022/11/18 03:59:21;;;;;;;1.85;1.75;;;12.00;99.90;;;;;;4250047;28;20035;-92
2022/11/18 04:01:52;;;;;;;1.88;1.80;;;12.20;99.90;;;;;;4234364;28;20055;-92
2022/11/18 04:04:13;;;;;;;2.33;2.33;;;12.30;99.90;;;;;;4233961;28;20081;-90
2022/11/18 04:06:33;;;;;;;2.97;2.17;;;12.10;99.90;;;;;;4239330;28;20058;-92
2022/11/18 04:08:58;;;;;;;2.15;2.15;;;11.90;99.90;;;;;;4233782;28;20067;-92
2022/11/18 04:14:09;;;;;;;2.83;2.55;;;11.90;99.90;;;;;;4248787;28;20265;-92
2022/11/18 04:16:29;;;;;;;2.63;2.42;;;11.80;99.90;;;;;;4245564;28;20051;-92
2022/11/18 04:18:49;;;;;;;2.15;2.05;;;11.80;99.90;;;;;;4245653;28;20042;-92
2022/11/18 04:21:09;;;;;;;2.65;2.65;;;11.80;99.90;;;;;;4247080;28;20284;-92
2022/11/18 04:23:29;;;;;;;3.30;1.83;;;11.80;99.90;;;;;;4249992;28;20339;-91
2022/11/18 04:25:49;;;;;;;1.90;1.90;;;11.80;99.90;;;;;;4248055;28;20041;-92
2022/11/18 04:28:09;;;;;;;2.20;2.00;;;11.70;99.90;;;;;;4240284;28;20073;-92
2022/11/18 04:30:29;;;;;;;2.65;2.58;;;11.70;99.90;;;;;;4228938;28;20390;-92
2022/11/18 04:32:49;;;;;;;3.25;2.00;;;11.70;99.90;;;;;;4243200;28;20046;-92
2022/11/18 04:35:09;;;;;;;2.65;2.55;;;11.70;99.90;;;;;;4237963;28;20094;-92
2022/11/18 04:37:29;;;;;;;2.38;2.28;;;11.70;99.90;;;;;;4247410;28;20140;-92
2022/11/18 04:39:50;;;;;;;2.15;2.05;;;11.70;99.90;;;;;;4245714;28;20081;-91
2022/11/18 04:42:10;;;;;;;2.65;2.00;;;11.70;99.90;;;;;;4245374;28;20038;-91
2022/11/18 04:44:32;;;;;;;3.65;2.10;;;11.70;99.90;;;;;;4247400;28;20247;-88
2022/11/18 04:46:52;;;;;;;4.95;1.77;;;11.70;99.90;;;;;;4232499;28;20046;-89
2022/11/18 04:49:14;;;;;;;2.97;2.88;;;11.80;99.90;;;;;;4248302;28;20046;-91
2022/11/18 04:51:35;;;;;;;2.90;2.70;;;11.70;99.90;;;;;;4246745;28;20058;-93
2022/11/18 04:53:55;;;;;;;7.60;3.22;;;11.60;99.90;;;;;;4250064;28;20103;-92
2022/11/18 04:56:16;;;;;;;1.75;1.75;;;11.60;99.90;;;;;;4248645;28;20115;-92
2022/11/18 04:58:36;;;;;;;1.23;1.23;;;11.40;99.90;;;;;;4251702;28;20034;-93
2022/11/18 05:00:57;;;;;;;1.10;1.10;;;11.30;99.90;;;;;;4249996;28;20084;-92
2022/11/18 05:03:17;;;;;;;1.95;1.25;;;11.30;99.90;;;;;;4231991;28;20263;-93
2022/11/18 05:05:38;;;;;;;1.80;1.70;;;11.30;99.90;;;;;;4250355;28;20046;-93
2022/11/18 05:07:57;;;;;;;1.13;1.13;;;11.30;99.90;;;;;;4247488;28;20289;-93
2022/11/18 05:10:18;;;;;;;1.52;1.52;;;11.30;99.90;;;;;;4245431;28;20074;-93
2022/11/18 05:12:51;;;;;;;1.23;1.23;;;11.30;99.90;;;;;;4245495;28;20372;-92
2022/11/18 05:15:11;;;;;;;1.85;1.65;;;11.30;99.90;;;;;;4235265;28;20070;-92
2022/11/18 05:17:33;;;;;;;1.15;1.15;;;11.40;99.90;;;;;;4251850;28;20038;-92
2022/11/18 05:19:53;;;;;;;1.30;1.30;;;11.30;99.90;;;;;;4243792;28;20081;-93
2022/11/18 05:22:13;;;;;;;1.63;1.17;;;11.20;99.90;;;;;;4245567;28;20077;-94
2022/11/18 05:24:33;;;;;;;1.27;1.20;;;11.10;99.90;;;;;;4242427;28;20046;-93
2022/11/18 05:26:54;;;;;;;1.10;1.10;;;11.20;99.90;;;;;;4244865;28;20055;-94
2022/11/18 05:29:16;;;;;;;1.20;1.20;;;11.20;99.90;;;;;;4240906;28;20076;-91
2022/11/18 05:31:38;;;;;;;3.80;2.03;;;11.10;99.90;;;;;;4241701;28;20046;-93
2022/11/18 05:33:59;;;;;;;1.85;1.85;;;11.10;99.90;;;;;;4244636;28;20395;-93
2022/11/18 05:36:20;;;;;;;2.83;2.63;;;11.10;99.90;;;;;;4242599;28;20050;-93
2022/11/18 05:38:41;;;;;;;2.40;2.30;;;11.20;99.90;;;;;;4246639;28;20115;-93
2022/11/18 05:41:01;;;;;;;2.58;2.38;;;11.30;99.90;;;;;;4238115;28;20054;-93
2022/11/18 05:43:21;;;;;;;1.60;1.60;;;11.30;99.90;;;;;;4245937;28;20053;-92
2022/11/18 05:45:43;;;;;;;1.75;1.75;;;11.50;99.90;;;;;;4243775;28;20047;-93
2022/11/18 05:48:05;;;;;;;1.80;1.80;;;11.70;99.90;;;;;;4241168;28;20047;-92
2022/11/18 05:50:25;;;;;;;3.70;1.80;;;12.00;99.90;;;;;;4250622;28;20046;-93
2022/11/18 05:52:45;;;;;;;1.90;1.80;;;12.00;99.90;;;;;;4251418;28;20043;-92
2022/11/18 05:55:06;;;;;;;1.42;1.35;;;12.30;99.90;;;;;;4250172;28;20047;-94
2022/11/18 05:57:26;;;;;;;1.73;1.70;;;12.40;99.90;;;;;;4233336;28;20047;-91
2022/11/18 05:59:46;;;;;;;2.05;1.30;;;12.40;99.90;;;;;;4249705;28;20099;-91
2022/11/18 06:02:20;;;;;;;4.25;2.03;;;12.40;99.90;;;;;;4243179;28;20057;-93
2022/11/18 06:04:45;;;;;;;2.10;1.95;;;12.50;99.90;;;;;;4249475;28;20103;-93
2022/11/18 06:07:12;;;;;;;2.22;2.03;;;12.90;99.90;;;;;;4240849;28;20347;-93
2022/11/18 06:09:36;;;;;;;2.72;2.63;;;12.80;99.90;;;;;;4247354;28;20059;-93
2022/11/18 06:11:59;;;;;;;2.60;1.73;;;12.50;99.90;;;;;;4249762;28;20082;-93
2022/11/18 06:14:49;;;;;;;4.35;3.33;;;12.10;99.90;;;;;;4254055;28;20238;-93
2022/11/18 06:17:21;;;;;;;2.25;2.08;;;12.10;99.90;;;;;;4249814;28;20306;-89
2022/11/18 06:19:41;;;;;;;1.92;1.90;;;12.00;99.90;;;;;;4248611;28;20230;-89
2022/11/18 06:22:02;;;;;;;2.45;2.00;;;11.80;99.90;;;;;;4247770;28;20089;-89
2022/11/18 06:24:22;;;;;;;3.95;3.67;;;11.80;99.90;;;;;;4236263;28;20070;-89
2022/11/18 06:26:43;;;;;;;3.35;3.25;;;11.70;99.90;;;;;;4244968;28;20047;-89
2022/11/18 06:29:05;;;;;;;2.92;2.67;;;11.50;99.90;;;;;;4252054;28;20079;-89
2022/11/18 06:31:24;;;;;;;5.35;2.60;;;11.50;99.90;;;;;;4254512;28;20110;-89
2022/11/18 06:33:44;;;;;;;1.92;1.83;;;11.40;99.90;;;;;;4235263;28;20365;-89
2022/11/18 06:36:04;;;;;;;1.30;1.30;;;11.40;99.90;;;;;;4228756;28;20121;-89
2022/11/18 06:38:24;;;;;;;1.67;1.40;;;11.40;99.90;;;;;;4240572;28;20254;-89
2022/11/18 06:40:45;;;;;;;2.92;2.08;;;11.50;99.90;;;;;;4237783;28;20051;-89
2022/11/18 06:46:54;;;;;;;3.15;1.48;;;11.40;99.90;;;;;;4251101;28;20047;-89
2022/11/18 06:48:30;;;;;;;3.05;2.85;;;11.40;99.90;;;;;;4247862;28;20088;-89
2022/11/18 06:50:51;;;;;;;16.70;12.23;;;11.40;99.90;;;;;;4228945;28;20043;-89
2022/11/18 06:53:11;;;;;;;7.05;6.35;;;11.20;99.90;;;;;;4246219;28;20095;-90
2022/11/18 06:55:31;;;;;;;2.20;2.20;;;11.10;99.90;;;;;;4235954;28;20109;-89
2022/11/18 06:57:50;;;;;;;3.83;3.38;;;10.90;99.90;;;;;;4236280;28;20067;-89
2022/11/18 07:00:11;;;;;;;6.63;4.57;;;10.80;99.90;;;;;;4244848;28;20069;-89
2022/11/18 07:02:31;;;;;;;3.30;3.15;;;10.50;99.90;;;;;;4239944;28;20085;-89
2022/11/18 07:04:50;;;;;;;2.90;2.75;;;10.40;99.90;;;;;;4239859;28;20090;-89
2022/11/18 07:07:11;;;;;;;2.45;2.35;;;10.50;99.90;;;;;;4249812;28;20145;-89
2022/11/18 07:09:31;;;;;;;2.50;2.30;;;10.50;99.90;;;;;;4239328;28;20097;-89
2022/11/18 07:11:51;;;;;;;8.10;4.60;;;10.50;99.90;;;;;;4250774;28;20050;-89
2022/11/18 07:14:12;;;;;;;3.90;3.55;;;10.50;99.90;;;;;;4249575;28;20147;-89
2022/11/18 07:16:33;;;;;;;5.03;4.25;;;10.50;99.90;;;;;;4246767;28;20084;-90
2022/11/18 07:18:54;;;;;;;3.38;3.28;;;10.60;99.90;;;;;;4248825;28;20037;-89
2022/11/18 07:21:17;;;;;;;3.67;2.75;;;10.60;99.90;;;;;;4240138;28;20291;-89
2022/11/18 07:23:37;;;;;;;2.40;2.30;;;10.60;99.90;;;;;;4249315;28;20108;-89
2022/11/18 07:25:57;;;;;;;3.60;2.70;;;10.70;99.90;;;;;;4250680;28;20083;-89
2022/11/18 07:28:17;;;;;;;3.40;3.30;;;10.80;99.90;;;;;;4242773;28;20050;-88
2022/11/18 07:30:37;;;;;;;3.47;2.72;;;11.00;99.90;;;;;;4251826;28;20392;-89
2022/11/18 07:32:57;;;;;;;3.33;3.22;;;10.90;99.90;;;;;;4239635;28;20049;-89
2022/11/18 07:35:17;;;;;;;2.80;2.60;;;11.00;99.90;;;;;;4242803;28;20078;-89
2022/11/18 07:37:37;;;;;;;6.97;5.40;;;11.00;99.90;;;;;;4248626;28;20066;-88
2022/11/18 07:39:58;;;;;;;4.00;3.80;;;11.00;99.90;;;;;;4249536;28;20054;-88
2022/11/18 07:42:18;;;;;;;2.13;2.03;;;11.10;99.90;;;;;;4246437;28;20051;-88
2022/11/18 07:44:37;;;;;;;7.72;3.75;;;11.20;99.90;;;;;;4238716;28;20054;-89
2022/11/18 07:46:57;;;;;;;4.10;3.90;;;11.20;99.90;;;;;;4233995;28;20039;-89
2022/11/18 07:49:16;;;;;;;5.30;3.60;;;11.30;99.90;;;;;;4233935;28;20084;-89
2022/11/18 07:51:38;;;;;;;2.78;2.67;;;11.30;99.90;;;;;;4245719;28;20062;-89
2022/11/18 07:53:58;;;;;;;2.03;1.92;;;11.30;99.90;;;;;;4230589;28;20039;-89
2022/11/18 07:56:19;;;;;;;4.43;2.17;;;11.40;99.90;;;;;;4235973;28;20090;-89
2022/11/18 07:58:39;;;;;;;7.18;1.70;;;11.40;99.90;;;;;;4244443;28;20047;-89
2022/11/18 08:01:15;;;;;;;1.98;1.80;;;11.50;99.90;;;;;;4246689;28;20053;-89
2022/11/18 08:03:36;;;;;;;5.75;4.22;;;11.70;99.90;;;;;;4245324;28;20045;-89
2022/11/18 08:05:59;;;;;;;3.92;3.13;;;11.70;99.90;;;;;;4243214;28;20077;-89
2022/11/18 08:08:19;;;;;;;12.57;3.10;;;11.90;99.90;;;;;;4247167;28;20081;-89
2022/11/18 08:10:39;;;;;;;4.88;2.35;;;11.90;99.90;;;;;;4236743;28;20055;-89
2022/11/18 08:12:59;;;;;;;2.65;2.45;;;11.90;99.90;;;;;;4245203;28;20038;-88
2022/11/18 08:15:18;;;;;;;2.00;1.90;;;11.90;99.90;;;;;;4240200;28;20042;-87
2022/11/18 08:17:38;;;;;;;2.05;1.92;;;11.80;99.90;;;;;;4235057;28;20047;-89
2022/11/18 08:19:57;;;;;;;2.22;2.05;;;11.80;99.90;;;;;;4247475;28;20365;-88
2022/11/18 08:22:19;;;;;;;2.97;2.40;;;11.70;99.90;;;;;;4245947;28;20084;-88
2022/11/18 08:24:39;;;;;;;2.67;2.58;;;11.60;99.90;;;;;;4248504;28;20051;-88
2022/11/18 08:26:59;;;;;;;4.05;3.33;;;11.60;99.90;;;;;;4247250;28;20046;-88
2022/11/18 08:29:18;;;;;;;4.75;3.20;;;11.60;99.90;;;;;;4243934;28;20081;-88
2022/11/18 08:31:44;;;;;;;4.55;4.18;;;11.60;99.90;;;;;;4246908;28;20042;-89
2022/11/18 08:34:06;;;;;;;8.35;4.15;;;11.60;99.90;;;;;;4243067;28;20050;-88
2022/11/18 08:36:29;;;;;;;3.85;3.55;;;11.60;99.90;;;;;;4244744;28;20104;-89
2022/11/18 08:38:48;;;;;;;5.20;3.00;;;11.60;99.90;;;;;;4231582;28;20116;-89
2022/11/18 08:41:13;;;;;;;2.55;2.33;;;11.60;99.90;;;;;;4234436;28;20054;-89
2022/11/18 08:43:36;;;;;;;3.10;2.90;;;11.60;99.90;;;;;;4228455;28;20051;-89
2022/11/18 08:45:57;;;;;;;5.72;3.80;;;11.90;99.90;;;;;;4244198;28;20058;-88
2022/11/18 08:48:17;;;;;;;3.58;3.15;;;11.90;99.90;;;;;;4247094;28;20039;-89
2022/11/18 08:50:36;;;;;;;5.35;5.05;;;12.00;99.90;;;;;;4248007;28;20403;-89
2022/11/18 08:52:56;;;;;;;5.80;5.25;;;12.10;99.90;;;;;;4243152;28;20042;-89
2022/11/18 08:55:16;;;;;;;3.55;3.42;;;12.10;99.90;;;;;;4242888;28;20293;-88
2022/11/18 08:57:36;;;;;;;3.83;3.70;;;12.10;99.90;;;;;;4246988;28;20066;-89
2022/11/18 08:59:56;;;;;;;3.08;2.90;;;12.10;99.90;;;;;;4236916;28;20365;-88
2022/11/18 09:02:19;;;;;;;3.80;3.10;;;12.30;99.90;;;;;;4233302;28;20050;-89
2022/11/18 09:04:38;;;;;;;3.95;3.75;;;12.80;99.90;;;;;;4244743;28;20260;-89
2022/11/18 09:06:58;;;;;;;5.50;3.10;;;12.80;99.90;;;;;;4250416;28;20069;-89
2022/11/18 09:09:18;;;;;;;2.92;2.72;;;12.80;99.90;;;;;;4243293;28;20043;-89
2022/11/18 09:11:38;;;;;;;2.90;2.75;;;12.90;99.90;;;;;;4248293;28;20116;-89
2022/11/18 09:13:59;;;;;;;2.28;2.15;;;13.10;99.90;;;;;;4246075;28;20284;-89
2022/11/18 09:16:38;;;;;;;2.42;2.33;;;13.20;99.90;;;;;;4247437;28;20081;-89
2022/11/18 09:18:59;;;;;;;4.03;3.72;;;13.30;99.90;;;;;;4241484;28;20074;-90
2022/11/18 09:21:37;;;;;;;26.27;19.90;;;13.40;99.90;;;;;;4239828;28;20377;-90
2022/11/18 09:24:03;;;;;;;3.97;3.47;;;13.40;99.90;;;;;;4247199;28;20038;-90
2022/11/18 09:26:23;;;;;;;6.47;2.88;;;13.50;99.90;;;;;;4247592;28;20369;-89
2022/11/18 09:28:43;;;;;;;2.40;2.20;;;13.50;99.90;;;;;;4248280;28;20039;-90
2022/11/18 09:31:06;;;;;;;5.47;5.15;;;13.40;99.90;;;;;;4237345;28;20082;-89
2022/11/18 09:33:26;;;;;;;4.00;2.63;;;13.30;99.90;;;;;;4245775;28;20075;-90
2022/11/18 09:35:47;;;;;;;5.25;3.83;;;13.30;99.90;;;;;;4247122;28;20653;-90
2022/11/18 09:38:07;;;;;;;7.82;5.97;;;13.30;99.90;;;;;;4253326;28;20041;-89
2022/11/18 09:40:27;;;;;;;4.88;4.38;;;13.40;99.90;;;;;;4233366;28;20088;-90
2022/11/18 09:43:19;;;;;;;5.53;3.58;;;13.60;99.90;;;;;;4251265;28;20069;-90
2022/11/18 09:45:44;;;;;;;4.45;4.13;;;13.80;99.90;;;;;;4248381;28;20055;-90
2022/11/18 09:49:11;;;;;;;5.57;4.00;;;13.80;99.90;;;;;;4234321;28;20039;-90
2022/11/18 09:51:05;;;;;;;3.88;3.40;;;13.70;99.90;;;;;;4249897;28;20077;-90
2022/11/18 09:53:26;;;;;;;4.47;2.50;;;13.70;99.90;;;;;;4250709;28;20054;-91
2022/11/18 09:55:47;;;;;;;6.28;3.67;;;13.90;99.90;;;;;;4230759;28;20074;-90
2022/11/18 09:58:30;;;;;;;7.30;2.17;;;13.90;99.90;;;;;;4248243;28;20039;-91
2022/11/18 10:00:49;;;;;;;5.47;2.38;;;14.10;99.90;;;;;;4248160;28;20043;-91
2022/11/18 10:03:28;;;;;;;1.55;1.45;;;14.20;99.90;;;;;;4237947;28;20077;-91
2022/11/18 10:05:56;;;;;;;1.75;1.45;;;14.40;99.90;;;;;;4247729;28;20051;-91
2022/11/18 10:08:21;;;;;;;10.18;3.05;;;14.30;99.90;;;;;;4251697;28;20099;-91
2022/11/18 10:10:54;;;;;;;2.17;1.73;;;14.10;99.90;;;;;;4251195;28;20058;-91
2022/11/18 10:13:30;;;;;;;5.90;1.60;;;14.00;99.90;;;;;;4247217;28;20047;-91
2022/11/18 10:16:02;;;;;;;3.40;1.85;;;13.90;99.90;;;;;;4241259;28;20046;-90
2022/11/18 10:18:31;;;;;;;2.65;1.70;;;13.80;99.90;;;;;;4249378;28;20078;-89
2022/11/18 10:21:23;;;;;;;3.45;1.35;;;13.90;99.90;;;;;;4244216;28;20284;-91
2022/11/18 10:24:04;;;;;;;2.35;1.33;;;14.00;99.90;;;;;;4249589;28;20039;-91
2022/11/18 10:26:55;;;;;;;2.75;1.85;;;14.40;99.90;;;;;;4249668;27;20034;-91
2022/11/18 10:29:15;;;;;;;4.72;1.55;;;14.40;99.90;;;;;;4239957;28;20268;-91
2022/11/18 10:31:52;;;;;;;5.55;2.17;;;14.40;99.90;;;;;;4246921;28;20384;-90
2022/11/18 10:34:17;;;;;;;3.28;1.33;;;14.60;99.90;;;;;;4244838;28;20361;-91
2022/11/18 10:36:37;;;;;;;2.17;2.08;;;14.90;99.90;;;;;;4250791;28;20057;-90
2022/11/18 10:39:17;;;;;;;3.45;1.70;;;15.10;99.90;;;;;;4246222;28;20084;-90
2022/11/18 10:41:40;;;;;;;3.00;2.20;;;15.30;99.90;;;;;;4248902;28;20141;-90
2022/11/18 10:44:00;;;;;;;1.95;1.40;;;15.40;99.90;;;;;;4247054;28;20112;-91
2022/11/18 10:46:30;;;;;;;1.30;1.20;;;15.50;99.90;;;;;;4246490;28;20231;-92
2022/11/18 10:49:26;;;;;;;4.03;1.35;;;15.60;99.90;;;;;;4251101;28;20073;-91
2022/11/18 10:52:02;;;;;;;1.55;1.45;;;15.60;99.90;;;;;;4179418;28;20275;-91
2022/11/18 10:54:22;;;;;;;2.45;1.13;;;15.70;99.90;;;;;;4183266;28;20078;-91
2022/11/18 10:57:02;;;;;;;1.20;1.10;;;15.50;99.90;;;;;;4181137;28;20126;-92
2022/11/18 10:59:32;;;;;;;1.60;1.27;;;15.40;99.90;;;;;;4180595;28;20414;-92
2022/11/18 11:02:19;;;;;;;2.80;1.92;;;15.50;99.90;;;;;;4179885;28;20548;-92
2022/11/18 11:04:40;;;;;;;1.40;1.30;;;15.70;99.90;;;;;;4181775;28;20087;-91
2022/11/18 11:07:16;;;;;;;2.75;1.63;;;15.60;99.90;;;;;;4182410;28;20099;-91
2022/11/18 11:09:36;;;;;;;1.45;1.20;;;15.30;99.90;;;;;;4180459;28;20091;-91
2022/11/18 11:12:28;;;;;;;3.17;1.38;;;15.20;99.90;;;;;;4180548;28;20048;-92
2022/11/18 11:14:52;;;;;;;2.97;1.38;;;15.30;99.90;;;;;;4184392;28;20191;-90
2022/11/18 11:17:13;;;;;;;8.85;6.53;;;15.50;99.90;;;;;;4181096;28;20386;-92
2022/11/18 11:19:57;;;;;;;1.30;1.20;;;15.30;99.90;;;;;;4183433;28;20157;-92
2022/11/18 11:22:18;;;;;;;3.72;2.35;;;15.00;99.90;;;;;;4182677;28;20039;-91
2022/11/18 11:24:38;;;;;;;3.22;1.20;;;15.10;99.90;;;;;;4166365;28;20361;-92
2022/11/18 11:27:17;;;;;;;1.27;1.27;;;15.00;99.90;;;;;;4236918;28;20047;-90
2022/11/18 11:29:57;;;;;;;2.47;1.30;;;14.90;99.90;;;;;;4247559;28;20073;-92
2022/11/18 11:32:41;;;;;;;2.03;1.33;;;14.70;99.90;;;;;;4231337;28;20097;-90
2022/11/18 11:35:09;;;;;;;1.70;1.20;;;14.60;99.90;;;;;;4251861;28;20392;-90
2022/11/18 11:37:53;;;;;;;1.20;1.10;;;14.90;99.90;;;;;;4242760;28;20414;-92
2022/11/18 11:40:28;;;;;;;1.75;1.33;;;15.00;99.90;;;;;;4244655;28;20041;-92
2022/11/18 11:43:07;;;;;;;1.50;1.40;;;15.00;99.90;;;;;;4248343;28;20042;-92
2022/11/18 11:45:55;;;;;;;1.85;1.67;;;15.30;99.90;;;;;;4245995;28;20261;-91
2022/11/18 11:48:53;;;;;;;3.25;1.63;;;15.50;99.90;;;;;;4243499;28;20039;-91
2022/11/18 11:51:30;;;;;;;2.15;1.85;;;15.70;99.90;;;;;;4205489;28;20059;-91
2022/11/18 11:54:01;;;;;;;1.70;1.15;;;15.90;99.90;;;;;;4204733;28;20449;-90
2022/11/18 11:56:33;;;;;;;1.00;1.00;;;16.00;99.90;;;;;;4204330;28;20047;-92
2022/11/18 11:59:21;;;;;;;2.28;2.08;;;16.10;99.90;;;;;;4204906;28;20149;-92
2022/11/18 12:01:50;;;;;;;2.10;2.00;;;15.80;99.90;;;;;;4205370;28;20393;-92
2022/11/18 12:04:28;;;;;;;1.60;1.50;;;16.00;99.90;;;;;;4205008;28;20044;-92
2022/11/18 12:06:52;;;;;;;1.77;1.13;;;16.00;99.90;;;;;;4205398;28;20124;-91
2022/11/18 12:09:33;;;;;;;1.40;1.30;;;16.20;99.90;;;;;;4184602;28;20363;-91
2022/11/18 12:12:00;;;;;;;4.65;2.47;;;16.30;99.90;;;;;;4205011;28;20086;-91
2022/11/18 12:14:46;;;;;;;3.22;2.50;;;16.10;99.90;;;;;;4204378;28;20240;-92
2022/11/18 12:17:39;;;;;;;3.50;1.58;;;16.00;99.90;;;;;;4205073;28;20047;-91
2022/11/18 12:19:59;;;;;;;5.03;1.98;;;15.80;99.90;;;;;;4205184;28;20259;-92
2022/11/18 12:22:19;;;;;;;2.85;1.50;;;15.80;99.90;;;;;;4238075;28;20050;-90
2022/11/18 12:24:43;;;;;;;3.58;1.30;;;15.80;99.90;;;;;;4239292;28;20258;-92
2022/11/18 12:27:33;;;;;;;3.00;2.45;;;16.10;99.90;;;;;;4244465;28;20070;-92
2022/11/18 12:29:58;;;;;;;5.10;3.60;;;16.40;99.90;;;;;;4248665;28;20059;-92
2022/11/18 12:32:28;;;;;;;3.42;2.00;;;16.40;99.90;;;;;;4244548;28;20445;-92
2022/11/18 12:34:59;;;;;;;4.90;2.00;;;16.60;99.90;;;;;;4238587;28;20084;-92
2022/11/18 12:37:25;;;;;;;6.68;2.95;;;16.60;99.90;;;;;;4230617;28;20047;-92
2022/11/18 12:39:47;;;;;;;3.88;2.25;;;16.70;99.90;;;;;;4234685;28;20107;-91
2022/11/18 12:45:40;;;;;;;3.88;1.88;;;16.30;99.90;;;;;;4247564;28;20112;-92
2022/11/18 12:48:00;;;;;;;3.63;2.15;;;16.20;99.90;;;;;;4230853;28;20068;-92
2022/11/18 12:50:20;;;;;;;6.40;3.05;;;16.10;99.90;;;;;;4245914;28;20273;-91